createdAt,value
2023-04-27T00:01:12.393Z,6.14
2023-04-27T00:06:17.774Z,6.02
2023-04-27T00:11:22.343Z,6.54
2023-04-27T00:16:26.388Z,5.75
2023-04-27T00:21:32.134Z,5.18
2023-04-27T00:26:36.131Z,5.74
2023-04-27T00:31:40.012Z,5.78
2023-04-27T00:36:45.581Z,5.37
2023-04-27T00:41:49.888Z,5.15
2023-04-27T00:46:54.844Z,5.31
2023-04-27T00:52:01.445Z,5.61
2023-04-27T00:57:05.360Z,5.55
2023-04-27T01:02:10.368Z,4.72
2023-04-27T01:07:17.102Z,5.77
2023-04-27T01:12:21.124Z,5.73
2023-04-27T01:17:26.264Z,5.63
2023-04-27T01:22:31.882Z,5.90
2023-04-27T01:27:37.205Z,5.45
2023-04-27T01:32:41.236Z,4.78
2023-04-27T01:37:45.419Z,4.66
2023-04-27T01:42:50.781Z,4.89
2023-04-27T01:47:55.272Z,5.72
2023-04-27T01:52:59.245Z,5.37
2023-04-27T01:58:04.661Z,5.16
2023-04-27T02:03:09.821Z,5.51
2023-04-27T02:08:13.946Z,4.75
2023-04-27T02:13:19.424Z,5.79
2023-04-27T02:18:24.454Z,5.27
2023-04-27T02:23:28.382Z,5.31
2023-04-27T02:28:34.372Z,4.95
2023-04-27T02:33:38.828Z,5.09
2023-04-27T02:38:42.737Z,5.55
2023-04-27T02:43:48.728Z,5.31
2023-04-27T02:48:52.782Z,5.60
2023-04-27T02:53:56.646Z,4.86
2023-04-27T02:59:02.186Z,5.00
2023-04-27T03:04:07.666Z,5.13
2023-04-27T03:09:12.961Z,4.86
2023-04-27T03:14:18.460Z,5.71
2023-04-27T03:19:22.425Z,5.47
2023-04-27T03:24:27.794Z,5.26
2023-04-27T03:29:33.199Z,5.21
2023-04-27T03:34:37.323Z,5.10
2023-04-27T03:39:41.892Z,4.95
2023-04-27T03:44:48.315Z,4.82
2023-04-27T03:49:52.228Z,5.57
2023-04-27T03:54:56.375Z,5.51
2023-04-27T04:00:01.778Z,5.45
2023-04-27T04:05:06.138Z,5.35
2023-04-27T04:10:12.015Z,6.30
2023-04-27T04:15:17.429Z,5.34
2023-04-27T04:20:21.668Z,5.52
2023-04-27T04:25:26.222Z,5.38
2023-04-27T04:30:32.601Z,5.54
2023-04-27T04:35:42.048Z,6.03
2023-04-27T04:40:50.727Z,5.61
2023-04-27T04:46:00.070Z,5.86
2023-04-27T04:51:08.508Z,6.25
2023-04-27T04:56:17.521Z,6.04
2023-04-27T05:01:25.469Z,5.82
2023-04-27T05:06:32.892Z,5.45
2023-04-27T05:11:40.125Z,5.98
2023-04-27T05:16:48.580Z,5.82
2023-04-27T05:21:52.709Z,5.75
2023-04-27T05:26:56.800Z,6.55
2023-04-27T05:32:02.159Z,5.88
2023-04-27T05:37:06.112Z,6.37
2023-04-27T05:42:09.985Z,6.82
2023-04-27T05:47:15.230Z,6.86
2023-04-27T05:52:19.232Z,6.64
2023-04-27T05:57:23.334Z,7.18
2023-04-27T06:02:28.972Z,7.68
2023-04-27T06:07:33.859Z,8.10
2023-04-27T06:12:38.194Z,8.76
2023-04-27T06:17:44.562Z,7.82
2023-04-27T06:22:48.582Z,8.65
2023-04-27T06:27:52.598Z,8.57
2023-04-27T06:32:57.987Z,8.45
2023-04-27T06:38:02.044Z,7.59
2023-04-27T06:43:06.242Z,7.61
2023-04-27T06:48:12.066Z,7.78
2023-04-27T06:53:17.406Z,8.91
2023-04-27T06:58:22.244Z,10.29
2023-04-27T07:03:27.907Z,10.68
2023-04-27T07:08:31.864Z,9.37
2023-04-27T07:13:35.935Z,8.47
2023-04-27T07:18:43.312Z,10.04
2023-04-27T07:23:47.607Z,11.60
2023-04-27T07:28:52.038Z,12.09
2023-04-27T07:33:58.157Z,10.75
2023-04-27T07:39:02.400Z,10.13
2023-04-27T07:44:06.549Z,8.71
2023-04-27T07:49:13.962Z,8.37
2023-04-27T07:54:18.116Z,8.62
2023-04-27T07:59:22.282Z,8.01
2023-04-27T08:04:27.948Z,7.59
2023-04-27T08:09:32.473Z,7.08
2023-04-27T08:14:37.718Z,7.62
2023-04-27T08:19:43.332Z,7.20
2023-04-27T08:24:47.290Z,8.02
2023-04-27T08:29:51.674Z,7.61
2023-04-27T08:34:59.540Z,9.57
2023-04-27T08:40:06.955Z,9.79
2023-04-27T08:45:11.502Z,9.62
2023-04-27T08:50:17.008Z,10.75
2023-04-27T08:55:21.310Z,9.35
2023-04-27T09:00:28.891Z,9.46
2023-04-27T09:05:34.456Z,9.73
2023-04-27T09:10:46.122Z,10.28
2023-04-27T09:15:52.702Z,9.78
2023-04-27T09:20:58.041Z,12.24
2023-04-27T09:26:03.798Z,13.18
2023-04-27T09:31:09.517Z,10.65
2023-04-27T09:36:15.567Z,9.59
2023-04-27T09:41:19.718Z,8.73
2023-04-27T09:46:26.022Z,8.21
2023-04-27T09:51:31.987Z,8.58
2023-04-27T09:56:54.869Z,9.19
2023-04-27T10:02:09.978Z,9.70
2023-04-27T10:07:23.709Z,9.19
2023-04-27T10:12:29.759Z,10.01
2023-04-27T10:17:35.471Z,10.28
2023-04-27T10:22:41.750Z,10.34
2023-04-27T10:27:49.770Z,10.36
2023-04-27T10:32:55.773Z,10.69
2023-04-27T10:38:08.616Z,10.29
2023-04-27T10:43:14.392Z,10.45
2023-04-27T10:48:18.637Z,10.83
2023-04-27T10:53:24.005Z,10.48
2023-04-27T10:58:37.647Z,10.01
2023-04-27T11:03:49.071Z,9.59
2023-04-27T11:08:54.931Z,10.97
2023-04-27T11:13:59.571Z,11.85
2023-04-27T11:19:06.902Z,11.37
2023-04-27T11:24:15.183Z,10.54
2023-04-27T11:29:19.701Z,11.11
2023-04-27T11:34:26.529Z,10.16
2023-04-27T11:39:35.338Z,10.43
2023-04-27T11:44:40.589Z,11.11
2023-04-27T11:49:48.354Z,11.35
2023-04-27T11:54:56.609Z,12.73
2023-04-27T12:00:11.302Z,12.06
2023-04-27T12:05:19.936Z,10.72
2023-04-27T12:10:26.085Z,10.40
2023-04-27T12:15:29.777Z,10.12
2023-04-27T12:20:33.862Z,10.10
2023-04-27T12:25:41.182Z,10.49
2023-04-27T12:30:45.669Z,11.31
2023-04-27T12:35:49.866Z,11.47
2023-04-27T12:40:55.286Z,10.71
2023-04-27T12:45:59.315Z,11.30
2023-04-27T12:51:03.573Z,11.84
2023-04-27T12:56:09.312Z,9.74
2023-04-27T13:01:15.633Z,9.63
2023-04-27T13:06:20.042Z,10.17
2023-04-27T13:11:25.627Z,9.73
2023-04-27T13:16:29.719Z,10.86
2023-04-27T13:21:34.345Z,10.39
2023-04-27T13:26:39.682Z,10.32
2023-04-27T13:31:43.774Z,9.84
2023-04-27T13:36:49.441Z,10.42
2023-04-27T13:41:55.090Z,10.31
2023-04-27T13:46:59.020Z,10.60
2023-04-27T13:52:03.138Z,11.16
2023-04-27T13:57:08.457Z,11.79
2023-04-27T14:02:12.531Z,12.33
2023-04-27T14:07:16.867Z,11.37
2023-04-27T14:12:22.314Z,12.10
2023-04-27T14:17:26.858Z,11.73
2023-04-27T14:22:31.560Z,11.07
2023-04-27T14:27:37.165Z,14.34
2023-04-27T14:32:41.859Z,12.34
2023-04-27T14:37:45.750Z,10.52
2023-04-27T14:42:51.140Z,10.27
2023-04-27T14:47:55.388Z,10.15
2023-04-27T14:52:59.453Z,9.95
2023-04-27T14:58:05.036Z,10.02
2023-04-27T15:03:09.418Z,9.26
2023-04-27T15:08:13.541Z,9.64
2023-04-27T15:13:18.824Z,10.39
2023-04-27T15:18:22.933Z,10.75
2023-04-27T15:23:28.363Z,11.09
2023-04-27T15:28:34.726Z,10.05
2023-04-27T15:33:38.679Z,9.93
2023-04-27T15:38:42.673Z,10.22
2023-04-27T15:43:48.126Z,11.04
2023-04-27T15:48:52.269Z,11.65
2023-04-27T15:53:56.215Z,13.15
2023-04-27T15:59:01.567Z,12.11
2023-04-27T16:04:06.399Z,10.58
2023-04-27T16:09:11.729Z,11.27
2023-04-27T16:14:17.145Z,9.81
2023-04-27T16:19:21.298Z,9.24
2023-04-27T16:24:26.934Z,8.98
2023-04-27T16:29:32.344Z,8.82
2023-04-27T16:34:37.298Z,8.68
2023-04-27T16:39:41.414Z,8.65
2023-04-27T16:44:47.087Z,9.25
2023-04-27T16:49:51.357Z,9.31
2023-04-27T16:54:55.544Z,9.75
2023-04-27T17:00:02.095Z,8.87
2023-04-27T17:05:07.103Z,8.78
2023-04-27T17:10:11.493Z,8.95
2023-04-27T17:15:18.254Z,9.14
2023-04-27T17:20:22.418Z,9.82
2023-04-27T17:25:26.848Z,9.08
2023-04-27T17:30:32.288Z,8.97
2023-04-27T17:35:36.400Z,8.99
2023-04-27T17:40:40.442Z,8.73
2023-04-27T17:45:45.781Z,8.95
2023-04-27T17:50:49.884Z,8.83
2023-04-27T17:55:54.108Z,9.14
2023-04-27T18:00:59.552Z,9.00
2023-04-27T18:06:12.611Z,8.23
2023-04-27T18:11:16.825Z,9.62
2023-04-27T18:16:22.262Z,8.56
2023-04-27T18:21:27.926Z,10.46
2023-04-27T18:26:32.120Z,8.40
2023-04-27T18:31:38.127Z,7.44
2023-04-27T18:36:42.320Z,8.48
2023-04-27T18:41:46.298Z,9.02
2023-04-27T18:46:51.923Z,7.25
2023-04-27T18:51:55.870Z,7.99
2023-04-27T18:57:00.230Z,7.42
2023-04-27T19:02:05.600Z,6.99
2023-04-27T19:07:09.688Z,6.67
2023-04-27T19:12:13.733Z,6.41
2023-04-27T19:17:19.409Z,6.26
2023-04-27T19:22:23.475Z,6.44
2023-04-27T19:27:27.568Z,6.29
2023-04-27T19:32:34.383Z,6.38
2023-04-27T19:37:38.586Z,6.20
2023-04-27T19:42:42.599Z,6.52
2023-04-27T19:47:48.757Z,6.42
2023-04-27T19:52:52.770Z,6.67
2023-04-27T19:57:56.814Z,6.75
2023-04-27T20:03:02.370Z,6.07
2023-04-27T20:08:06.547Z,5.61
2023-04-27T20:13:10.935Z,5.63
2023-04-27T20:18:16.350Z,5.39
2023-04-27T20:23:20.237Z,5.82
2023-04-27T20:28:24.481Z,5.15
2023-04-27T20:33:29.876Z,5.12
2023-04-27T20:38:33.814Z,5.01
2023-04-27T20:43:39.876Z,5.02
2023-04-27T20:48:46.311Z,5.09
2023-04-27T20:53:50.290Z,4.65
2023-04-27T20:58:54.388Z,5.08
2023-04-27T21:04:00.264Z,4.62
2023-04-27T21:09:04.232Z,4.41
2023-04-27T21:14:08.357Z,4.17
2023-04-27T21:19:16.262Z,4.34
2023-04-27T21:24:20.424Z,4.41
2023-04-27T21:29:24.420Z,4.06
2023-04-27T21:34:29.722Z,5.41
2023-04-27T21:39:33.638Z,5.64
2023-04-27T21:44:38.264Z,6.20
2023-04-27T21:49:43.589Z,5.27
2023-04-27T21:54:47.453Z,5.04
2023-04-27T21:59:51.383Z,4.52
2023-04-27T22:04:56.822Z,4.37
2023-04-27T22:10:00.816Z,4.49
2023-04-27T22:15:05.234Z,4.19
2023-04-27T22:20:12.720Z,3.69
2023-04-27T22:25:17.233Z,3.41
2023-04-27T22:30:21.126Z,3.81
2023-04-27T22:35:27.805Z,4.92
2023-04-27T22:40:32.072Z,5.69
2023-04-27T22:45:38.147Z,5.80
2023-04-27T22:50:44.251Z,6.07
2023-04-27T22:55:48.148Z,6.11
2023-04-27T23:00:52.084Z,6.42
2023-04-27T23:05:57.779Z,6.69
2023-04-27T23:11:02.828Z,7.17
2023-04-27T23:16:07.930Z,6.76
2023-04-27T23:21:13.600Z,6.78
2023-04-27T23:26:17.984Z,7.65
2023-04-27T23:31:23.651Z,7.78
2023-04-27T23:36:29.501Z,7.46
2023-04-27T23:41:33.350Z,6.71
2023-04-27T23:46:37.585Z,6.83
2023-04-27T23:51:42.843Z,6.03
2023-04-27T23:56:47.296Z,5.50
